Time;durP1;ratioP1;P1;durP2;ratioP2;P2;SDS_P1;SDS_P2;PMS_P1;PMS_P2;Temp;Humidity;BMP_temperature;BMP_pressure;BME280_temperature;BME280_humidity;BME280_pressure;Samples;Min_cycle;Max_cycle;Signal;HPM_P1;HPM_P2
2021/01/08 00:02:01;;;;;;;;;;;1.60;99.90;;;;;;5003057;28;20350;-77
2021/01/08 00:04:28;;;;;;;;;;;1.60;99.90;;;;;;5002480;28;19926;-77
2021/01/08 00:06:54;;;;;;;;;;;1.60;99.90;;;;;;5003001;28;19926;-78
2021/01/08 00:09:21;;;;;;;;;;;1.60;99.90;;;;;;5002464;28;19933;-77
2021/01/08 00:11:52;;;;;;;;;;;1.70;99.90;;;;;;5001291;28;19936;-77
2021/01/08 00:14:19;;;;;;;;;;;1.70;99.90;;;;;;5001665;28;19926;-77
2021/01/08 00:16:45;;;;;;;;;;;1.70;99.90;;;;;;5002379;28;19936;-77
2021/01/08 00:19:13;;;;;;;;;;;1.70;99.90;;;;;;5002773;28;19926;-77
2021/01/08 00:21:42;;;;;;;;;;;1.70;99.90;;;;;;5002377;28;19941;-77
2021/01/08 00:24:08;;;;;;;;;;;1.70;99.90;;;;;;5002136;28;20450;-77
2021/01/08 00:26:36;;;;;;;;;;;1.70;99.90;;;;;;5001904;28;20373;-77
2021/01/08 00:29:02;;;;;;;;;;;1.70;99.90;;;;;;5001301;28;19936;-77
2021/01/08 00:31:34;;;;;;;;;;;1.70;99.90;;;;;;4984665;28;19927;-77
2021/01/08 00:34:01;;;;;;;;;;;1.70;99.90;;;;;;4981881;28;19926;-77
2021/01/08 00:36:27;;;;;;;;;;;1.70;99.90;;;;;;4998477;28;19925;-77
2021/01/08 00:38:53;;;;;;;;;;;1.70;99.90;;;;;;5000791;28;19932;-77
2021/01/08 00:41:26;;;;;;;;;;;1.70;99.90;;;;;;5001083;28;19955;-77
2021/01/08 00:43:54;;;;;;;;;;;1.70;99.90;;;;;;5000831;28;19925;-77
2021/01/08 00:46:20;;;;;;;;;;;1.70;99.90;;;;;;5001021;28;19936;-77
2021/01/08 00:48:47;;;;;;;;;;;1.70;99.90;;;;;;5000500;28;20080;-77
2021/01/08 00:51:14;;;;;;;;;;;1.60;99.90;;;;;;5001043;28;19984;-77
2021/01/08 00:53:40;;;;;;;;;;;1.70;99.90;;;;;;5000500;28;19925;-77
2021/01/08 00:56:15;;;;;;;;;;;1.60;99.90;;;;;;5000220;28;19953;-77
2021/01/08 00:58:42;;;;;;;;;;;1.60;99.90;;;;;;5000521;28;19925;-77
2021/01/08 01:01:09;;;;;;;;;;;1.70;99.90;;;;;;5000314;28;19925;-77
2021/01/08 01:03:35;;;;;;;;;;;1.70;99.90;;;;;;4999567;28;19932;-77
2021/01/08 01:06:02;;;;;;;;;;;1.60;99.90;;;;;;4999360;28;19926;-77
2021/01/08 01:08:28;;;;;;;;;;;1.60;99.90;;;;;;5000025;28;19926;-77
2021/01/08 01:10:54;;;;;;;;;;;1.60;99.90;;;;;;5000490;28;19925;-77
2021/01/08 01:13:21;;;;;;;;;;;1.70;99.90;;;;;;5000612;28;19926;-77
2021/01/08 01:15:47;;;;;;;;;;;1.60;99.90;;;;;;4999656;28;20010;-77
2021/01/08 01:18:15;;;;;;;;;;;1.60;99.90;;;;;;5000045;28;20354;-77
2021/01/08 01:20:41;;;;;;;;;;;1.70;99.90;;;;;;5000469;28;20001;-77
2021/01/08 01:23:07;;;;;;;;;;;1.70;99.90;;;;;;5001166;28;19933;-77
2021/01/08 01:25:34;;;;;;;;;;;1.60;99.90;;;;;;4999234;28;19926;-77
2021/01/08 01:28:00;;;;;;;;;;;1.60;99.90;;;;;;5001737;28;20262;-77
2021/01/08 01:30:26;;;;;;;;;;;1.60;99.90;;;;;;5001573;28;19937;-77
2021/01/08 01:32:53;;;;;;;;;;;1.60;99.90;;;;;;5001750;28;19932;-77
2021/01/08 01:35:20;;;;;;;;;;;1.60;99.90;;;;;;5001693;28;19926;-77
2021/01/08 01:37:46;;;;;;;;;;;1.70;99.90;;;;;;5001223;28;19942;-77
2021/01/08 01:40:13;;;;;;;;;;;1.60;99.90;;;;;;5000672;28;19926;-77
2021/01/08 01:42:39;;;;;;;;;;;1.60;99.90;;;;;;5000637;28;19930;-77
2021/01/08 01:45:07;;;;;;;;;;;1.60;99.90;;;;;;5000375;28;19925;-77
2021/01/08 01:47:33;;;;;;;;;;;1.60;99.90;;;;;;4999800;28;19936;-77
2021/01/08 01:49:59;;;;;;;;;;;1.70;99.90;;;;;;4999935;28;19933;-77
2021/01/08 01:52:27;;;;;;;;;;;1.60;99.90;;;;;;4999828;28;19926;-77
2021/01/08 01:54:53;;;;;;;;;;;1.70;99.90;;;;;;4999189;28;19994;-77
2021/01/08 01:57:19;;;;;;;;;;;1.60;99.90;;;;;;4999834;28;20025;-77
2021/01/08 01:59:46;;;;;;;;;;;1.70;99.90;;;;;;4999893;28;20277;-77
2021/01/08 02:02:15;;;;;;;;;;;1.70;99.90;;;;;;5001052;28;19926;-77
2021/01/08 02:04:41;;;;;;;;;;;1.70;99.90;;;;;;5000354;28;19936;-77
2021/01/08 02:07:07;;;;;;;;;;;1.70;99.90;;;;;;5000588;28;19930;-77
2021/01/08 02:09:35;;;;;;;;;;;1.70;99.90;;;;;;4999633;28;19926;-77
2021/01/08 02:12:01;;;;;;;;;;;1.70;99.90;;;;;;4998918;28;19936;-77
2021/01/08 02:14:28;;;;;;;;;;;1.70;99.90;;;;;;4998512;28;19988;-77
2021/01/08 02:16:54;;;;;;;;;;;1.70;99.90;;;;;;5000921;28;19926;-77
2021/01/08 02:19:22;;;;;;;;;;;1.60;99.90;;;;;;5000983;28;19926;-77
2021/01/08 02:21:49;;;;;;;;;;;1.60;99.90;;;;;;5001314;28;19936;-77
2021/01/08 02:24:17;;;;;;;;;;;1.70;99.90;;;;;;5001851;28;19932;-77
2021/01/08 02:26:44;;;;;;;;;;;1.70;99.90;;;;;;5002973;28;19929;-77
2021/01/08 02:29:10;;;;;;;;;;;1.70;99.90;;;;;;5003064;28;19926;-77
2021/01/08 02:31:37;;;;;;;;;;;1.70;99.90;;;;;;5000840;28;19932;-77
2021/01/08 02:34:03;;;;;;;;;;;1.70;99.90;;;;;;5001670;28;19926;-77
2021/01/08 02:36:29;;;;;;;;;;;1.70;99.90;;;;;;5005001;28;19939;-77
2021/01/08 02:38:56;;;;;;;;;;;1.70;99.90;;;;;;5003260;28;19925;-77
2021/01/08 02:41:22;;;;;;;;;;;1.70;99.90;;;;;;5003170;28;19926;-77
2021/01/08 02:43:49;;;;;;;;;;;1.60;99.90;;;;;;5004571;28;19989;-77
2021/01/08 02:46:16;;;;;;;;;;;1.70;99.90;;;;;;5003503;28;19926;-77
2021/01/08 02:48:42;;;;;;;;;;;1.60;99.90;;;;;;5002882;28;19991;-77
2021/01/08 02:51:08;;;;;;;;;;;1.60;99.90;;;;;;5003416;28;19926;-77
2021/01/08 02:53:35;;;;;;;;;;;1.70;99.90;;;;;;5003048;28;20258;-77
2021/01/08 02:56:03;;;;;;;;;;;1.60;99.90;;;;;;5005356;28;20384;-77
2021/01/08 02:58:29;;;;;;;;;;;1.70;99.90;;;;;;5005049;28;19939;-77
2021/01/08 03:00:57;;;;;;;;;;;1.70;99.90;;;;;;5002527;28;19925;-77
2021/01/08 03:03:23;;;;;;;;;;;1.70;99.90;;;;;;5003079;28;19976;-77
2021/01/08 03:05:50;;;;;;;;;;;1.70;99.90;;;;;;5001978;28;20373;-77
2021/01/08 03:08:16;;;;;;;;;;;1.70;99.90;;;;;;5003969;28;19936;-77
2021/01/08 03:10:43;;;;;;;;;;;1.70;99.90;;;;;;5004312;28;19932;-77
2021/01/08 03:13:09;;;;;;;;;;;1.70;99.90;;;;;;5004771;28;19929;-77
2021/01/08 03:15:35;;;;;;;;;;;1.70;99.90;;;;;;5004686;28;19941;-77
2021/01/08 03:18:03;;;;;;;;;;;1.70;99.90;;;;;;5004771;28;19925;-77
2021/01/08 03:20:29;;;;;;;;;;;1.70;99.90;;;;;;5004567;28;20005;-77
2021/01/08 03:22:55;;;;;;;;;;;1.70;99.90;;;;;;5002884;28;19926;-77
2021/01/08 03:25:22;;;;;;;;;;;1.70;99.90;;;;;;5002959;28;20271;-77
2021/01/08 03:27:48;;;;;;;;;;;1.70;99.90;;;;;;5002967;28;19952;-77
2021/01/08 03:30:15;;;;;;;;;;;1.70;99.90;;;;;;5003008;28;19926;-77
2021/01/08 03:32:41;;;;;;;;;;;1.70;99.90;;;;;;5001597;28;20324;-77
2021/01/08 03:35:13;;;;;;;;;;;1.70;99.90;;;;;;5001264;28;20243;-77
2021/01/08 03:37:40;;;;;;;;;;;1.70;99.90;;;;;;5010703;28;19965;-77
2021/01/08 03:40:08;;;;;;;;;;;1.70;99.90;;;;;;5005219;28;20044;-77
2021/01/08 03:42:36;;;;;;;;;;;1.70;99.90;;;;;;5005004;28;19926;-78
2021/01/08 03:45:04;;;;;;;;;;;1.70;99.90;;;;;;5004724;28;19987;-77
2021/01/08 03:47:31;;;;;;;;;;;1.70;99.90;;;;;;5004190;28;20376;-77
2021/01/08 03:49:57;;;;;;;;;;;1.70;99.90;;;;;;5005473;28;20053;-77
2021/01/08 03:52:26;;;;;;;;;;;-0.60;99.90;;;;;;5004365;28;19925;-77
2021/01/08 03:54:52;;;;;;;;;;;1.70;99.90;;;;;;5004219;28;19936;-77
2021/01/08 03:57:18;;;;;;;;;;;1.70;99.90;;;;;;5004284;28;20028;-77
2021/01/08 03:59:45;;;;;;;;;;;1.70;99.90;;;;;;5004904;28;19925;-77
2021/01/08 04:02:11;;;;;;;;;;;1.70;99.90;;;;;;5002700;28;19937;-77
2021/01/08 04:04:38;;;;;;;;;;;1.70;99.90;;;;;;5002510;28;19930;-77
2021/01/08 04:07:05;;;;;;;;;;;1.70;99.90;;;;;;5001262;28;19926;-77
2021/01/08 04:09:32;;;;;;;;;;;1.70;99.90;;;;;;5002041;28;20001;-77
2021/01/08 04:11:58;;;;;;;;;;;1.70;99.90;;;;;;5002007;28;19969;-77
2021/01/08 04:14:25;;;;;;;;;;;1.70;99.90;;;;;;5003365;28;20350;-77
2021/01/08 04:16:51;;;;;;;;;;;1.80;99.90;;;;;;5001845;28;19926;-77
2021/01/08 04:19:17;;;;;;;;;;;1.80;99.90;;;;;;5001359;28;19929;-77
2021/01/08 04:21:45;;;;;;;;;;;1.70;99.90;;;;;;5002164;28;19937;-77
2021/01/08 04:24:11;;;;;;;;;;;1.80;99.90;;;;;;5001791;28;19937;-77
2021/01/08 04:26:39;;;;;;;;;;;1.80;99.90;;;;;;5001679;28;19940;-77
2021/01/08 04:29:05;;;;;;;;;;;1.70;99.90;;;;;;5001388;28;19926;-77
2021/01/08 04:31:31;;;;;;;;;;;1.70;99.90;;;;;;5001047;28;20247;-77
2021/01/08 04:33:58;;;;;;;;;;;1.70;99.90;;;;;;4999944;28;19936;-77
2021/01/08 04:36:24;;;;;;;;;;;1.70;99.90;;;;;;4999593;28;19926;-77
2021/01/08 04:38:50;;;;;;;;;;;1.60;99.90;;;;;;4999249;28;19925;-77
2021/01/08 04:41:17;;;;;;;;;;;1.60;99.90;;;;;;4998101;28;19926;-76
2021/01/08 04:43:44;;;;;;;;;;;1.50;99.90;;;;;;4998298;28;19933;-76
2021/01/08 04:46:13;;;;;;;;;;;1.50;99.90;;;;;;4997403;28;19926;-76
2021/01/08 04:48:39;;;;;;;;;;;1.40;99.90;;;;;;4997286;28;20363;-76
2021/01/08 04:51:06;;;;;;;;;;;1.40;99.90;;;;;;4996921;28;19936;-76
2021/01/08 04:53:32;;;;;;;;;;;1.30;99.90;;;;;;4997237;28;19936;-76
2021/01/08 04:56:00;;;;;;;;;;;1.20;99.90;;;;;;4997040;28;19926;-76
2021/01/08 04:58:26;;;;;;;;;;;1.20;99.90;;;;;;4997123;28;19936;-76
2021/01/08 05:00:53;;;;;;;;;;;1.20;99.90;;;;;;4997129;28;19932;-77
2021/01/08 05:03:20;;;;;;;;;;;1.20;99.90;;;;;;4997197;28;19938;-76
2021/01/08 05:05:46;;;;;;;;;;;1.10;99.90;;;;;;4997308;28;19937;-76
2021/01/08 05:08:12;;;;;;;;;;;1.10;99.90;;;;;;4997348;28;20298;-76
2021/01/08 05:10:39;;;;;;;;;;;1.10;99.90;;;;;;4997064;28;19939;-76
2021/01/08 05:13:05;;;;;;;;;;;1.10;99.90;;;;;;4996926;28;20363;-76
2021/01/08 05:15:31;;;;;;;;;;;1.10;99.90;;;;;;4996962;28;20220;-76
2021/01/08 05:17:59;;;;;;;;;;;1.10;99.90;;;;;;4996663;28;20385;-76
2021/01/08 05:20:25;;;;;;;;;;;1.20;99.90;;;;;;4996298;28;19925;-76
2021/01/08 05:22:51;;;;;;;;;;;1.10;99.90;;;;;;4996412;28;19936;-76
2021/01/08 05:25:17;;;;;;;;;;;1.10;99.90;;;;;;4996404;28;19937;-76
2021/01/08 05:27:44;;;;;;;;;;;1.20;99.90;;;;;;4996546;28;19965;-76
2021/01/08 05:30:14;;;;;;;;;;;1.20;99.90;;;;;;4996385;28;19984;-76
2021/01/08 05:32:40;;;;;;;;;;;1.20;99.90;;;;;;4996364;28;19926;-76
2021/01/08 05:35:08;;;;;;;;;;;1.20;99.90;;;;;;4996126;28;19936;-76
2021/01/08 05:37:35;;;;;;;;;;;1.20;99.90;;;;;;4996115;28;19936;-76
2021/01/08 05:40:01;;;;;;;;;;;1.20;99.90;;;;;;4996380;28;19926;-76
2021/01/08 05:42:27;;;;;;;;;;;1.30;99.90;;;;;;4996005;28;19929;-76
2021/01/08 05:44:54;;;;;;;;;;;1.30;99.90;;;;;;4996176;28;19936;-76
2021/01/08 05:47:20;;;;;;;;;;;1.30;99.90;;;;;;4996726;28;19938;-76
2021/01/08 05:49:46;;;;;;;;;;;1.30;99.90;;;;;;4995867;28;19933;-75
2021/01/08 05:52:14;;;;;;;;;;;1.30;99.90;;;;;;4995988;28;19937;-75
2021/01/08 05:54:40;;;;;;;;;;;1.40;99.90;;;;;;4995714;28;19926;-75
2021/01/08 05:57:06;;;;;;;;;;;1.40;99.90;;;;;;4996005;28;19932;-75
2021/01/08 05:59:33;;;;;;;;;;;1.40;99.90;;;;;;4995894;28;20370;-75
2021/01/08 06:01:59;;;;;;;;;;;1.40;99.90;;;;;;4995709;28;19925;-75
2021/01/08 06:04:29;;;;;;;;;;;1.40;99.90;;;;;;4995619;28;20313;-76
2021/01/08 06:06:55;;;;;;;;;;;1.40;99.90;;;;;;4995808;28;19926;-75
2021/01/08 06:09:23;;;;;;;;;;;1.40;99.90;;;;;;4995062;28;19933;-76
2021/01/08 06:11:49;;;;;;;;;;;1.40;99.90;;;;;;4995694;28;19926;-76
2021/01/08 06:14:16;;;;;;;;;;;1.40;99.90;;;;;;4995671;28;19925;-76
2021/01/08 06:16:43;;;;;;;;;;;1.40;99.90;;;;;;4996206;28;19948;-76
2021/01/08 06:19:09;;;;;;;;;;;1.40;99.90;;;;;;4995617;28;19980;-76
2021/01/08 06:21:36;;;;;;;;;;;1.50;99.90;;;;;;4995638;28;20389;-76
2021/01/08 06:24:02;;;;;;;;;;;1.50;99.90;;;;;;4995505;28;19926;-76
2021/01/08 06:26:30;;;;;;;;;;;1.50;99.90;;;;;;4995483;28;19926;-76
2021/01/08 06:28:57;;;;;;;;;;;1.50;99.90;;;;;;4995464;28;19926;-76
2021/01/08 06:31:26;;;;;;;;;;;1.50;99.90;;;;;;4995336;28;19930;-76
2021/01/08 06:33:53;;;;;;;;;;;1.50;99.90;;;;;;4995683;28;19929;-76
2021/01/08 06:36:20;;;;;;;;;;;1.50;99.90;;;;;;4995398;28;19925;-76
2021/01/08 06:38:48;;;;;;;;;;;1.50;99.90;;;;;;4995570;28;19926;-76
2021/01/08 06:41:16;;;;;;;;;;;1.50;99.90;;;;;;4995427;28;20278;-76
2021/01/08 06:43:46;;;;;;;;;;;1.50;99.90;;;;;;4995425;28;19937;-76
2021/01/08 06:46:13;;;;;;;;;;;1.50;99.90;;;;;;4976127;28;19984;-76
2021/01/08 06:48:40;;;;;;;;;;;1.60;99.90;;;;;;4976065;28;19926;-76
2021/01/08 06:51:06;;;;;;;;;;;1.60;99.90;;;;;;4976142;28;19926;-76
2021/01/08 06:53:33;;;;;;;;;;;1.60;99.90;;;;;;4976022;28;19927;-76
2021/01/08 06:55:59;;;;;;;;;;;1.60;99.90;;;;;;4976026;28;19927;-76
2021/01/08 06:58:25;;;;;;;;;;;1.60;99.90;;;;;;4976033;28;20401;-76
2021/01/08 07:00:52;;;;;;;;;;;1.60;99.90;;;;;;4986953;28;19932;-76
2021/01/08 07:03:20;;;;;;;;;;;1.50;99.90;;;;;;4995180;28;19932;-76
2021/01/08 07:05:46;;;;;;;;;;;1.50;99.90;;;;;;4995197;28;19993;-76
2021/01/08 07:08:13;;;;;;;;;;;1.60;99.90;;;;;;4995441;28;19926;-76
2021/01/08 07:10:39;;;;;;;;;;;1.60;99.90;;;;;;4995284;28;19930;-76
2021/01/08 07:13:05;;;;;;;;;;;1.60;99.90;;;;;;4995373;28;19925;-76
2021/01/08 07:15:32;;;;;;;;;;;1.60;99.90;;;;;;4995190;28;19925;-76
2021/01/08 07:17:59;;;;;;;;;;;1.60;99.90;;;;;;4995523;28;19941;-76
2021/01/08 07:20:25;;;;;;;;;;;1.60;99.90;;;;;;4995736;28;19937;-76
2021/01/08 07:22:52;;;;;;;;;;;1.60;99.90;;;;;;4998796;28;20362;-76
2021/01/08 07:25:19;;;;;;;;;;;1.60;99.90;;;;;;4998882;28;20309;-76
2021/01/08 07:27:46;;;;;;;;;;;1.60;99.90;;;;;;4998622;28;19992;-76
2021/01/08 07:30:13;;;;;;;;;;;1.60;99.90;;;;;;4998346;28;19937;-76
2021/01/08 07:32:39;;;;;;;;;;;1.60;99.90;;;;;;4998721;28;19929;-76
2021/01/08 07:35:16;;;;;;;;;;;1.60;99.90;;;;;;4998468;28;19926;-76
2021/01/08 07:37:55;;;;;;;;;;;1.60;99.90;;;;;;4998366;28;19984;-76
2021/01/08 07:40:22;;;;;;;;;;;1.60;99.90;;;;;;4998400;28;19926;-76
2021/01/08 07:43:01;;;;;;;;;;;1.60;99.90;;;;;;4998331;28;20259;-76
2021/01/08 07:45:49;;;;;;;;;;;1.60;99.90;;;;;;4998165;28;20330;-76
2021/01/08 07:48:19;;;;;;;;;;;1.60;99.90;;;;;;4998079;28;19925;-76
2021/01/08 07:50:55;;;;;;;;;;;1.60;99.90;;;;;;5001429;28;20251;-76
2021/01/08 07:53:40;;;;;;;;;;;1.60;99.90;;;;;;4998429;28;19926;-76
2021/01/08 07:56:06;;;;;;;;;;;1.70;99.90;;;;;;4998207;28;19956;-76
2021/01/08 07:58:33;;;;;;;;;;;1.70;99.90;;;;;;4998043;28;19932;-76
2021/01/08 08:00:59;;;;;;;;;;;1.70;99.90;;;;;;4997889;28;19926;-76
2021/01/08 08:03:25;;;;;;;;;;;1.70;99.90;;;;;;4997790;28;19926;-76
2021/01/08 08:05:52;;;;;;;;;;;1.70;99.90;;;;;;4997820;28;19926;-76
2021/01/08 08:08:19;;;;;;;;;;;1.70;99.90;;;;;;4998162;28;19930;-76
2021/01/08 08:10:45;;;;;;;;;;;1.70;99.90;;;;;;4997896;28;20342;-76
2021/01/08 08:13:12;;;;;;;;;;;1.70;99.90;;;;;;4997684;28;19932;-76
2021/01/08 08:15:45;;;;;;;;;;;1.70;99.90;;;;;;4997638;28;19932;-76
2021/01/08 08:18:11;;;;;;;;;;;1.70;99.90;;;;;;4997677;28;19925;-76
2021/01/08 08:20:37;;;;;;;;;;;1.80;99.90;;;;;;4997489;28;19936;-76
2021/01/08 08:23:03;;;;;;;;;;;1.80;99.90;;;;;;4997973;28;19932;-76
2021/01/08 08:25:31;;;;;;;;;;;1.80;99.90;;;;;;4996265;28;19926;-76
2021/01/08 08:27:58;;;;;;;;;;;1.80;99.90;;;;;;4997790;28;19930;-76
2021/01/08 08:30:24;;;;;;;;;;;1.80;99.90;;;;;;4997567;28;20343;-76
2021/01/08 08:32:51;;;;;;;;;;;1.80;99.90;;;;;;4996781;28;19926;-76
2021/01/08 08:35:17;;;;;;;;;;;1.80;99.90;;;;;;4997824;28;19937;-76
2021/01/08 08:37:50;;;;;;;;;;;1.80;99.90;;;;;;4997641;28;19926;-76
2021/01/08 08:40:16;;;;;;;;;;;1.80;99.90;;;;;;4995499;28;19930;-76
2021/01/08 08:42:44;;;;;;;;;;;1.80;99.90;;;;;;4995880;28;19926;-76
2021/01/08 08:45:28;;;;;;;;;;;1.80;99.90;;;;;;4997311;28;19925;-76
2021/01/08 08:47:55;;;;;;;;;;;1.80;99.90;;;;;;4997251;28;19926;-76
2021/01/08 08:50:21;;;;;;;;;;;1.80;99.90;;;;;;4997425;28;19926;-76
2021/01/08 08:52:48;;;;;;;;;;;1.90;99.90;;;;;;4997935;28;19930;-76
2021/01/08 08:55:26;;;;;;;;;;;1.90;99.90;;;;;;4997672;28;20263;-76
2021/01/08 08:57:59;;;;;;;;;;;1.90;99.90;;;;;;4997175;28;19926;-76
2021/01/08 09:00:27;;;;;;;;;;;1.90;99.90;;;;;;4997858;28;20351;-76
2021/01/08 09:02:53;;;;;;;;;;;1.90;99.90;;;;;;4997402;28;19973;-77
2021/01/08 09:05:19;;;;;;;;;;;1.90;99.90;;;;;;4997469;28;19925;-76
2021/01/08 09:07:47;;;;;;;;;;;1.90;99.90;;;;;;4997499;28;19926;-77
2021/01/08 09:10:14;;;;;;;;;;;2.00;99.90;;;;;;4997454;28;19936;-77
2021/01/08 09:12:42;;;;;;;;;;;2.00;99.90;;;;;;4997603;28;19926;-76
2021/01/08 09:15:13;;;;;;;;;;;2.00;99.90;;;;;;4997517;28;20404;-76
2021/01/08 09:17:40;;;;;;;;;;;2.00;99.90;;;;;;4997496;28;19983;-76
2021/01/08 09:20:07;;;;;;;;;;;2.00;99.90;;;;;;4997362;28;19926;-77
2021/01/08 09:22:35;;;;;;;;;;;2.00;99.90;;;;;;4997749;28;19926;-77
2021/01/08 09:25:01;;;;;;;;;;;2.00;99.90;;;;;;4997223;28;19948;-77
2021/01/08 09:27:27;;;;;;;;;;;2.00;99.90;;;;;;4997047;28;20342;-77
2021/01/08 09:29:54;;;;;;;;;;;2.10;99.90;;;;;;4996925;28;19926;-76
2021/01/08 09:32:30;;;;;;;;;;;2.00;99.90;;;;;;4997033;28;19937;-76
2021/01/08 09:34:59;;;;;;;;;;;2.00;99.90;;;;;;4996866;28;20001;-76
2021/01/08 09:37:25;;;;;;;;;;;2.10;99.90;;;;;;4996919;28;19949;-77
2021/01/08 09:39:51;;;;;;;;;;;2.10;99.90;;;;;;4996777;28;19926;-76
2021/01/08 09:42:18;;;;;;;;;;;2.20;99.90;;;;;;4996811;28;19944;-76
2021/01/08 09:44:44;;;;;;;;;;;2.20;99.90;;;;;;4996902;28;19934;-76
2021/01/08 09:47:13;;;;;;;;;;;2.20;99.90;;;;;;4997061;28;19926;-76
2021/01/08 09:49:41;;;;;;;;;;;2.30;99.90;;;;;;4996789;28;19930;-77
2021/01/08 09:52:07;;;;;;;;;;;2.30;99.90;;;;;;4996804;28;19937;-77
2021/01/08 09:54:45;;;;;;;;;;;2.30;99.90;;;;;;4997669;28;19936;-76
2021/01/08 09:57:24;;;;;;;;;;;2.40;99.90;;;;;;4998009;28;20325;-77
2021/01/08 09:59:55;;;;;;;;;;;2.40;99.90;;;;;;4997838;28;19925;-77
2021/01/08 10:02:35;;;;;;;;;;;2.40;99.90;;;;;;4997759;28;19926;-77
2021/01/08 10:05:04;;;;;;;;;;;2.40;99.90;;;;;;4997170;28;20323;-76
2021/01/08 10:07:41;;;;;;;;;;;2.40;99.90;;;;;;4997445;28;20278;-77
2021/01/08 10:10:09;;;;;;;;;;;2.40;99.90;;;;;;4997413;28;19929;-77
2021/01/08 10:12:43;;;;;;;;;;;2.40;99.90;;;;;;4995144;28;19925;-77
2021/01/08 10:15:10;;;;;;;;;;;2.40;99.90;;;;;;4996210;28;19941;-76
2021/01/08 10:17:44;;;;;;;;;;;2.40;99.90;;;;;;5000817;28;19932;-76
2021/01/08 10:20:28;;;;;;;;;;;2.50;99.90;;;;;;5003585;28;19933;-77
2021/01/08 10:22:55;;;;;;;;;;;2.40;99.90;;;;;;5001858;28;20376;-76
2021/01/08 10:25:24;;;;;;;;;;;2.50;99.90;;;;;;5003566;28;19926;-74
2021/01/08 10:27:57;;;;;;;;;;;2.50;99.90;;;;;;5008788;28;19976;-79
2021/01/08 10:30:27;;;;;;;;;;;2.50;99.90;;;;;;5010523;28;19910;-78
2021/01/08 10:32:54;;;;;;;;;;;4.30;99.90;;;;;;5000616;28;20028;-78
2021/01/08 10:38:14;;;;;;;;;;;2.60;99.90;;;;;;4956730;28;19927;-79
2021/01/08 10:40:42;;;;;;;;;;;2.60;99.90;;;;;;4955407;28;19926;-77
2021/01/08 10:43:08;;;;;;;;;;;2.60;99.90;;;;;;4955867;29;19996;-77
2021/01/08 10:45:35;;;;;;;;;;;2.60;99.90;;;;;;4956188;29;19937;-77
2021/01/08 10:48:01;;;;;;;;;;;2.60;99.90;;;;;;4956707;29;19927;-77
2021/01/08 10:50:27;;;;;;;;;;;2.60;99.90;;;;;;4956682;29;19926;-77
2021/01/08 10:52:56;;;;;;;;;;;2.60;99.90;;;;;;4956752;29;19927;-77
2021/01/08 10:55:24;;;;;;;;;;;2.60;99.90;;;;;;4956983;28;19926;-77
2021/01/08 10:57:50;;;;;;;;;;;2.60;99.90;;;;;;4960588;29;19926;-77
2021/01/08 11:00:19;;;;;;;;;;;2.60;99.90;;;;;;4966794;28;19926;-77
2021/01/08 11:02:45;;;;;;;;;;;2.60;99.90;;;;;;4979747;28;19937;-77
2021/01/08 11:05:12;;;;;;;;;;;2.60;99.90;;;;;;4979769;28;19937;-77
2021/01/08 11:07:38;;;;;;;;;;;2.70;99.90;;;;;;4979858;28;19930;-77
2021/01/08 11:10:05;;;;;;;;;;;2.70;99.90;;;;;;4979558;28;20351;-78
2021/01/08 11:12:33;;;;;;;;;;;2.60;99.90;;;;;;4979713;28;19926;-77
2021/01/08 11:15:00;;;;;;;;;;;2.60;99.90;;;;;;4979603;28;19972;-77
2021/01/08 11:17:26;;;;;;;;;;;2.70;99.90;;;;;;4979319;28;19926;-77
2021/01/08 11:19:53;;;;;;;;;;;2.60;99.90;;;;;;4979306;28;19926;-77
2021/01/08 11:22:19;;;;;;;;;;;2.70;99.90;;;;;;4979416;28;20417;-77
2021/01/08 11:24:46;;;;;;;;;;;2.70;99.90;;;;;;4979168;28;20429;-77
2021/01/08 11:27:12;;;;;;;;;;;2.70;99.90;;;;;;4979403;28;19938;-77
2021/01/08 11:29:40;;;;;;;;;;;2.70;99.90;;;;;;4979168;28;20406;-78
2021/01/08 11:32:07;;;;;;;;;;;2.60;99.90;;;;;;4979248;28;19927;-77
2021/01/08 11:34:34;;;;;;;;;;;2.70;99.90;;;;;;4978996;28;19926;-77
2021/01/08 11:37:00;;;;;;;;;;;2.70;99.90;;;;;;4978959;28;19980;-78
2021/01/08 11:39:26;;;;;;;;;;;2.70;99.90;;;;;;4979177;28;20267;-78
2021/01/08 11:41:54;;;;;;;;;;;2.70;99.90;;;;;;4978906;28;20355;-78
2021/01/08 11:44:21;;;;;;;;;;;2.70;99.90;;;;;;4978898;28;19948;-78
2021/01/08 11:46:48;;;;;;;;;;;2.70;99.90;;;;;;4978368;28;20006;-78
2021/01/08 11:49:15;;;;;;;;;;;2.70;99.90;;;;;;4978873;28;20025;-77
2021/01/08 11:51:41;;;;;;;;;;;2.70;99.90;;;;;;4978853;28;20246;-78
2021/01/08 11:54:08;;;;;;;;;;;2.70;99.90;;;;;;4978950;28;19926;-78
2021/01/08 11:56:34;;;;;;;;;;;2.70;99.90;;;;;;4978863;28;19926;-78
2021/01/08 11:59:00;;;;;;;;;;;2.70;99.90;;;;;;4978694;28;20263;-78
2021/01/08 12:01:27;;;;;;;;;;;2.70;99.90;;;;;;4968198;28;19926;-78
2021/01/08 12:03:54;;;;;;;;;;;2.70;99.90;;;;;;4959431;29;20363;-77
2021/01/08 12:06:27;;;;;;;;;;;2.70;99.90;;;;;;4959165;28;19926;-78
2021/01/08 12:08:54;;;;;;;;;;;2.70;99.90;;;;;;4958300;29;19938;-77
2021/01/08 12:11:20;;;;;;;;;;;2.80;99.90;;;;;;4965400;28;19926;-77
2021/01/08 12:13:49;;;;;;;;;;;2.80;99.90;;;;;;4978530;28;20414;-77
2021/01/08 12:16:22;;;;;;;;;;;2.80;99.90;;;;;;4961346;28;19926;-77
2021/01/08 12:18:49;;;;;;;;;;;2.80;99.90;;;;;;4978485;28;19926;-77
2021/01/08 12:21:16;;;;;;;;;;;2.80;99.90;;;;;;4978519;28;19933;-77
2021/01/08 12:23:43;;;;;;;;;;;2.80;99.90;;;;;;4978267;28;19980;-77
2021/01/08 12:26:12;;;;;;;;;;;2.80;99.90;;;;;;4978241;28;20017;-78
2021/01/08 12:28:38;;;;;;;;;;;2.80;99.90;;;;;;4978330;28;19942;-77
2021/01/08 12:31:05;;;;;;;;;;;2.80;99.90;;;;;;4977968;28;20012;-77
2021/01/08 12:33:31;;;;;;;;;;;2.90;99.90;;;;;;4978222;28;19972;-78
2021/01/08 12:35:58;;;;;;;;;;;2.90;99.90;;;;;;4978014;28;20423;-78
2021/01/08 12:38:25;;;;;;;;;;;2.90;99.90;;;;;;4977942;28;19938;-78
2021/01/08 12:40:52;;;;;;;;;;;2.90;99.90;;;;;;4977882;28;19977;-77
2021/01/08 12:43:18;;;;;;;;;;;2.90;99.90;;;;;;4978223;28;19930;-78
2021/01/08 12:45:45;;;;;;;;;;;2.90;99.90;;;;;;4977809;28;19926;-77
2021/01/08 12:48:11;;;;;;;;;;;2.90;99.90;;;;;;4969039;28;19938;-77
2021/01/08 12:50:37;;;;;;;;;;;2.80;99.90;;;;;;4958785;29;19927;-77
2021/01/08 12:53:04;;;;;;;;;;;2.80;99.90;;;;;;4958574;29;20248;-77
2021/01/08 12:55:32;;;;;;;;;;;2.80;99.90;;;;;;4958316;29;19930;-78
2021/01/08 12:58:00;;;;;;;;;;;2.80;99.90;;;;;;4958276;29;20267;-77
2021/01/08 13:00:26;;;;;;;;;;;2.80;99.90;;;;;;4965845;28;20024;-78
2021/01/08 13:02:53;;;;;;;;;;;2.80;99.90;;;;;;4977382;28;20270;-77
2021/01/08 13:05:19;;;;;;;;;;;2.80;99.90;;;;;;4977279;28;19926;-77
2021/01/08 13:07:45;;;;;;;;;;;2.80;99.90;;;;;;4977540;28;19952;-77
2021/01/08 13:10:12;;;;;;;;;;;2.80;99.90;;;;;;4977424;28;19926;-77
2021/01/08 13:12:39;;;;;;;;;;;2.80;99.90;;;;;;4977197;28;19940;-77
2021/01/08 13:15:06;;;;;;;;;;;2.80;99.90;;;;;;4976519;28;19926;-77
2021/01/08 13:17:33;;;;;;;;;;;2.80;99.90;;;;;;4975111;28;19926;-77
2021/01/08 13:20:00;;;;;;;;;;;2.80;99.90;;;;;;4975009;28;19937;-76
2021/01/08 13:22:28;;;;;;;;;;;2.80;99.90;;;;;;4975395;28;19973;-76
2021/01/08 13:24:56;;;;;;;;;;;2.80;99.90;;;;;;4975166;28;19926;-76
2021/01/08 13:27:24;;;;;;;;;;;2.80;99.90;;;;;;4975550;28;19969;-76
2021/01/08 13:29:55;;;;;;;;;;;2.80;99.90;;;;;;4975453;28;19926;-76
2021/01/08 13:32:23;;;;;;;;;;;2.80;99.90;;;;;;4959127;28;19926;-77
2021/01/08 13:34:50;;;;;;;;;;;2.80;99.90;;;;;;4975775;28;19937;-77
2021/01/08 13:37:18;;;;;;;;;;;2.80;99.90;;;;;;4975910;28;19973;-77
2021/01/08 13:39:44;;;;;;;;;;;2.80;99.90;;;;;;4975711;28;19945;-76
2021/01/08 13:42:11;;;;;;;;;;;2.80;99.90;;;;;;4976429;28;19929;-77
2021/01/08 13:44:38;;;;;;;;;;;2.80;99.90;;;;;;4976430;28;20021;-77
2021/01/08 13:47:07;;;;;;;;;;;2.80;99.90;;;;;;4976628;28;19977;-77
2021/01/08 13:49:35;;;;;;;;;;;2.80;99.90;;;;;;4976598;28;19989;-77
2021/01/08 13:52:03;;;;;;;;;;;2.80;99.90;;;;;;4976606;28;19926;-77
2021/01/08 13:54:31;;;;;;;;;;;2.80;99.90;;;;;;4976453;28;19981;-77
2021/01/08 13:56:58;;;;;;;;;;;2.80;99.90;;;;;;4976351;28;19937;-77
2021/01/08 13:59:26;;;;;;;;;;;2.80;99.90;;;;;;4976753;28;19926;-77
2021/01/08 14:01:54;;;;;;;;;;;2.80;99.90;;;;;;4976681;28;19926;-77
2021/01/08 14:04:24;;;;;;;;;;;2.80;99.90;;;;;;4976289;28;19926;-77
2021/01/08 14:06:52;;;;;;;;;;;2.80;99.90;;;;;;4976445;28;20024;-77
2021/01/08 14:09:19;;;;;;;;;;;2.80;99.90;;;;;;4976298;28;19940;-77
2021/01/08 14:11:45;;;;;;;;;;;2.80;99.90;;;;;;4975835;28;19933;-77
2021/01/08 14:14:12;;;;;;;;;;;2.80;99.90;;;;;;4976308;28;19926;-77
2021/01/08 14:16:42;;;;;;;;;;;2.80;99.90;;;;;;4976125;28;19941;-77
2021/01/08 14:19:10;;;;;;;;;;;2.80;99.90;;;;;;4976479;28;19934;-77
2021/01/08 14:21:42;;;;;;;;;;;2.80;99.90;;;;;;4976265;28;19926;-77
2021/01/08 14:24:12;;;;;;;;;;;2.80;99.90;;;;;;4976051;28;19930;-77
2021/01/08 14:26:39;;;;;;;;;;;2.80;99.90;;;;;;4975972;28;19926;-77
2021/01/08 14:29:07;;;;;;;;;;;2.80;99.90;;;;;;4976238;28;19926;-77
2021/01/08 14:31:33;;;;;;;;;;;4.50;99.90;;;;;;4979387;28;20362;-78
2021/01/08 14:34:01;;;;;;;;;;;2.80;99.90;;;;;;4983407;28;19936;-77
2021/01/08 14:36:29;;;;;;;;;;;2.80;99.90;;;;;;4983341;28;19965;-77